sensor_id;sensor_type;location;lat;lon;timestamp;temperature;humidity
13052;DHT22;6592;47.484;9.726;2024-03-07T00:00:19;3.60;99.90
13052;DHT22;6592;47.484;9.726;2024-03-07T00:02:50;3.60;99.90
13052;DHT22;6592;47.484;9.726;2024-03-07T00:05:20;3.60;99.90
13052;DHT22;6592;47.484;9.726;2024-03-07T00:07:51;3.60;99.90
13052;DHT22;6592;47.484;9.726;2024-03-07T00:10:20;3.60;99.90
13052;DHT22;6592;47.484;9.726;2024-03-07T00:12:50;3.50;99.90
13052;DHT22;6592;47.484;9.726;2024-03-07T00:15:19;3.50;99.90
13052;DHT22;6592;47.484;9.726;2024-03-07T00:17:48;3.60;99.90
13052;DHT22;6592;47.484;9.726;2024-03-07T00:20:16;3.60;99.90
13052;DHT22;6592;47.484;9.726;2024-03-07T00:22:47;3.60;99.90
13052;DHT22;6592;47.484;9.726;2024-03-07T00:25:15;3.50;99.90
13052;DHT22;6592;47.484;9.726;2024-03-07T00:27:47;3.60;99.90
13052;DHT22;6592;47.484;9.726;2024-03-07T00:30:16;3.50;99.90
13052;DHT22;6592;47.484;9.726;2024-03-07T00:32:48;3.60;99.90
13052;DHT22;6592;47.484;9.726;2024-03-07T00:35:16;3.50;99.90
13052;DHT22;6592;47.484;9.726;2024-03-07T00:37:46;3.50;99.90
13052;DHT22;6592;47.484;9.726;2024-03-07T00:40:15;3.50;99.90
13052;DHT22;6592;47.484;9.726;2024-03-07T00:42:43;3.40;99.90
13052;DHT22;6592;47.484;9.726;2024-03-07T00:45:11;3.40;99.90
13052;DHT22;6592;47.484;9.726;2024-03-07T00:47:40;3.40;99.90
13052;DHT22;6592;47.484;9.726;2024-03-07T00:50:10;3.40;99.90
13052;DHT22;6592;47.484;9.726;2024-03-07T00:52:39;3.40;99.90
13052;DHT22;6592;47.484;9.726;2024-03-07T00:55:08;3.40;99.90
13052;DHT22;6592;47.484;9.726;2024-03-07T00:57:36;3.40;99.90
13052;DHT22;6592;47.484;9.726;2024-03-07T01:00:05;3.40;99.90
13052;DHT22;6592;47.484;9.726;2024-03-07T01:02:39;3.40;99.90
13052;DHT22;6592;47.484;9.726;2024-03-07T01:05:12;3.40;99.90
13052;DHT22;6592;47.484;9.726;2024-03-07T01:07:41;3.40;99.90
13052;DHT22;6592;47.484;9.726;2024-03-07T01:10:10;3.50;99.90
13052;DHT22;6592;47.484;9.726;2024-03-07T01:12:38;3.50;99.90
13052;DHT22;6592;47.484;9.726;2024-03-07T01:15:07;3.50;99.90
13052;DHT22;6592;47.484;9.726;2024-03-07T01:17:37;3.60;99.90
13052;DHT22;6592;47.484;9.726;2024-03-07T01:20:07;3.60;99.90
13052;DHT22;6592;47.484;9.726;2024-03-07T01:22:37;3.70;99.90
13052;DHT22;6592;47.484;9.726;2024-03-07T01:25:06;3.70;99.90
13052;DHT22;6592;47.484;9.726;2024-03-07T01:27:34;3.70;99.90
13052;DHT22;6592;47.484;9.726;2024-03-07T01:30:03;3.70;99.90
13052;DHT22;6592;47.484;9.726;2024-03-07T01:32:31;3.70;99.90
13052;DHT22;6592;47.484;9.726;2024-03-07T01:35:00;3.70;99.90
13052;DHT22;6592;47.484;9.726;2024-03-07T01:37:28;3.70;99.90
13052;DHT22;6592;47.484;9.726;2024-03-07T01:39:58;3.80;99.90
13052;DHT22;6592;47.484;9.726;2024-03-07T01:42:26;3.70;99.90
13052;DHT22;6592;47.484;9.726;2024-03-07T01:44:54;3.70;99.90
13052;DHT22;6592;47.484;9.726;2024-03-07T01:47:22;3.70;99.90
13052;DHT22;6592;47.484;9.726;2024-03-07T01:49:51;3.70;99.90
13052;DHT22;6592;47.484;9.726;2024-03-07T01:52:20;3.70;99.90
13052;DHT22;6592;47.484;9.726;2024-03-07T01:54:49;3.70;99.90
13052;DHT22;6592;47.484;9.726;2024-03-07T01:57:18;3.80;99.90
13052;DHT22;6592;47.484;9.726;2024-03-07T01:59:47;3.80;99.90
13052;DHT22;6592;47.484;9.726;2024-03-07T02:02:17;3.80;99.90
13052;DHT22;6592;47.484;9.726;2024-03-07T02:04:46;3.70;99.90
13052;DHT22;6592;47.484;9.726;2024-03-07T02:07:14;3.70;99.90
13052;DHT22;6592;47.484;9.726;2024-03-07T02:09:42;3.70;99.90
13052;DHT22;6592;47.484;9.726;2024-03-07T02:12:10;3.70;99.90
13052;DHT22;6592;47.484;9.726;2024-03-07T02:14:40;3.70;99.90
13052;DHT22;6592;47.484;9.726;2024-03-07T02:17:08;3.70;99.90
13052;DHT22;6592;47.484;9.726;2024-03-07T02:19:37;3.70;99.90
13052;DHT22;6592;47.484;9.726;2024-03-07T02:22:06;3.80;99.90
13052;DHT22;6592;47.484;9.726;2024-03-07T02:24:35;3.70;99.90
13052;DHT22;6592;47.484;9.726;2024-03-07T02:27:03;3.80;99.90
13052;DHT22;6592;47.484;9.726;2024-03-07T02:29:31;3.70;99.90
13052;DHT22;6592;47.484;9.726;2024-03-07T02:31:59;3.70;99.90
13052;DHT22;6592;47.484;9.726;2024-03-07T02:34:28;3.70;99.90
13052;DHT22;6592;47.484;9.726;2024-03-07T02:36:56;3.70;99.90
13052;DHT22;6592;47.484;9.726;2024-03-07T02:39:26;3.80;99.90
13052;DHT22;6592;47.484;9.726;2024-03-07T02:41:54;3.70;99.90
13052;DHT22;6592;47.484;9.726;2024-03-07T02:44:22;3.70;99.90
13052;DHT22;6592;47.484;9.726;2024-03-07T02:46:51;3.70;99.90
13052;DHT22;6592;47.484;9.726;2024-03-07T02:49:19;3.70;99.90
13052;DHT22;6592;47.484;9.726;2024-03-07T02:51:48;3.70;99.90
13052;DHT22;6592;47.484;9.726;2024-03-07T02:54:16;3.80;99.90
13052;DHT22;6592;47.484;9.726;2024-03-07T02:56:46;3.70;99.90
13052;DHT22;6592;47.484;9.726;2024-03-07T02:59:14;3.80;99.90
13052;DHT22;6592;47.484;9.726;2024-03-07T03:01:43;3.80;99.90
13052;DHT22;6592;47.484;9.726;2024-03-07T03:04:12;3.80;99.90
13052;DHT22;6592;47.484;9.726;2024-03-07T03:06:40;3.80;99.90
13052;DHT22;6592;47.484;9.726;2024-03-07T03:09:08;3.80;99.90
13052;DHT22;6592;47.484;9.726;2024-03-07T03:11:40;3.80;99.90
13052;DHT22;6592;47.484;9.726;2024-03-07T03:14:09;3.80;99.90
13052;DHT22;6592;47.484;9.726;2024-03-07T03:16:41;3.80;99.90
13052;DHT22;6592;47.484;9.726;2024-03-07T03:19:14;3.80;99.90
13052;DHT22;6592;47.484;9.726;2024-03-07T03:21:43;3.80;99.90
13052;DHT22;6592;47.484;9.726;2024-03-07T03:24:11;3.90;99.90
13052;DHT22;6592;47.484;9.726;2024-03-07T03:26:39;3.90;99.90
13052;DHT22;6592;47.484;9.726;2024-03-07T03:29:10;3.90;99.90
13052;DHT22;6592;47.484;9.726;2024-03-07T03:31:40;3.90;99.90
13052;DHT22;6592;47.484;9.726;2024-03-07T03:34:09;4.00;99.90
13052;DHT22;6592;47.484;9.726;2024-03-07T03:36:38;4.00;99.90
13052;DHT22;6592;47.484;9.726;2024-03-07T03:39:06;4.00;99.90
13052;DHT22;6592;47.484;9.726;2024-03-07T03:41:38;4.00;99.90
13052;DHT22;6592;47.484;9.726;2024-03-07T03:44:06;4.00;99.90
13052;DHT22;6592;47.484;9.726;2024-03-07T03:46:36;4.00;99.90
13052;DHT22;6592;47.484;9.726;2024-03-07T03:49:04;4.00;99.90
13052;DHT22;6592;47.484;9.726;2024-03-07T03:51:33;4.00;99.90
13052;DHT22;6592;47.484;9.726;2024-03-07T03:54:01;4.10;99.90
13052;DHT22;6592;47.484;9.726;2024-03-07T03:56:29;4.10;99.90
13052;DHT22;6592;47.484;9.726;2024-03-07T03:58:59;4.10;99.90
13052;DHT22;6592;47.484;9.726;2024-03-07T04:01:27;4.00;99.90
13052;DHT22;6592;47.484;9.726;2024-03-07T04:03:57;3.90;99.90
13052;DHT22;6592;47.484;9.726;2024-03-07T04:06:25;4.00;99.90
13052;DHT22;6592;47.484;9.726;2024-03-07T04:08:54;3.90;99.90
13052;DHT22;6592;47.484;9.726;2024-03-07T04:11:22;3.90;99.90
13052;DHT22;6592;47.484;9.726;2024-03-07T04:13:51;4.00;99.90
13052;DHT22;6592;47.484;9.726;2024-03-07T04:16:19;4.00;99.90
13052;DHT22;6592;47.484;9.726;2024-03-07T04:18:47;4.00;99.90
13052;DHT22;6592;47.484;9.726;2024-03-07T04:21:17;4.00;99.90
13052;DHT22;6592;47.484;9.726;2024-03-07T04:23:45;4.00;99.90
13052;DHT22;6592;47.484;9.726;2024-03-07T04:26:14;4.00;99.90
13052;DHT22;6592;47.484;9.726;2024-03-07T04:28:43;4.00;99.90
13052;DHT22;6592;47.484;9.726;2024-03-07T04:31:11;4.00;99.90
13052;DHT22;6592;47.484;9.726;2024-03-07T04:33:40;4.00;99.90
13052;DHT22;6592;47.484;9.726;2024-03-07T04:36:08;4.00;99.90
13052;DHT22;6592;47.484;9.726;2024-03-07T04:38:39;3.90;99.90
13052;DHT22;6592;47.484;9.726;2024-03-07T04:41:11;3.80;99.90
13052;DHT22;6592;47.484;9.726;2024-03-07T04:43:39;3.80;99.90
13052;DHT22;6592;47.484;9.726;2024-03-07T04:46:09;3.80;99.90
13052;DHT22;6592;47.484;9.726;2024-03-07T04:48:37;3.80;99.90
13052;DHT22;6592;47.484;9.726;2024-03-07T04:51:05;3.80;99.90
13052;DHT22;6592;47.484;9.726;2024-03-07T04:53:34;3.80;99.90
13052;DHT22;6592;47.484;9.726;2024-03-07T04:56:05;3.70;99.90
13052;DHT22;6592;47.484;9.726;2024-03-07T04:58:34;3.70;99.90
13052;DHT22;6592;47.484;9.726;2024-03-07T05:01:03;3.60;99.90
13052;DHT22;6592;47.484;9.726;2024-03-07T05:03:31;3.70;99.90
13052;DHT22;6592;47.484;9.726;2024-03-07T05:05:59;3.70;99.90
13052;DHT22;6592;47.484;9.726;2024-03-07T05:08:28;3.80;99.90
13052;DHT22;6592;47.484;9.726;2024-03-07T05:10:56;3.80;99.90
13052;DHT22;6592;47.484;9.726;2024-03-07T05:13:26;3.80;99.90
13052;DHT22;6592;47.484;9.726;2024-03-07T05:15:54;3.80;99.90
13052;DHT22;6592;47.484;9.726;2024-03-07T05:18:22;3.70;99.90
13052;DHT22;6592;47.484;9.726;2024-03-07T05:20:51;3.70;99.90
13052;DHT22;6592;47.484;9.726;2024-03-07T05:23:21;3.80;99.90
13052;DHT22;6592;47.484;9.726;2024-03-07T05:25:50;3.80;99.90
13052;DHT22;6592;47.484;9.726;2024-03-07T05:28:18;3.70;99.90
13052;DHT22;6592;47.484;9.726;2024-03-07T05:30:47;3.70;99.90
13052;DHT22;6592;47.484;9.726;2024-03-07T05:33:16;3.70;99.90
13052;DHT22;6592;47.484;9.726;2024-03-07T05:35:45;3.70;99.90
13052;DHT22;6592;47.484;9.726;2024-03-07T05:38:13;3.70;99.90
13052;DHT22;6592;47.484;9.726;2024-03-07T05:40:41;3.60;99.90
13052;DHT22;6592;47.484;9.726;2024-03-07T05:43:10;3.60;99.90
13052;DHT22;6592;47.484;9.726;2024-03-07T05:45:40;3.60;99.90
13052;DHT22;6592;47.484;9.726;2024-03-07T05:48:15;3.60;99.90
13052;DHT22;6592;47.484;9.726;2024-03-07T05:50:44;3.50;99.90
13052;DHT22;6592;47.484;9.726;2024-03-07T05:53:13;3.40;99.90
13052;DHT22;6592;47.484;9.726;2024-03-07T05:55:42;3.30;99.90
13052;DHT22;6592;47.484;9.726;2024-03-07T05:58:12;3.20;99.90
13052;DHT22;6592;47.484;9.726;2024-03-07T06:00:43;3.20;99.90
13052;DHT22;6592;47.484;9.726;2024-03-07T06:03:14;3.20;99.90
13052;DHT22;6592;47.484;9.726;2024-03-07T06:05:44;3.20;99.90
13052;DHT22;6592;47.484;9.726;2024-03-07T06:08:15;3.20;99.90
13052;DHT22;6592;47.484;9.726;2024-03-07T06:10:45;3.20;99.90
13052;DHT22;6592;47.484;9.726;2024-03-07T06:13:15;3.20;99.90
13052;DHT22;6592;47.484;9.726;2024-03-07T06:15:44;3.20;99.90
13052;DHT22;6592;47.484;9.726;2024-03-07T06:18:13;3.30;99.90
13052;DHT22;6592;47.484;9.726;2024-03-07T06:20:43;3.30;99.90
13052;DHT22;6592;47.484;9.726;2024-03-07T06:23:11;3.30;99.90
13052;DHT22;6592;47.484;9.726;2024-03-07T06:25:40;3.30;99.90
13052;DHT22;6592;47.484;9.726;2024-03-07T06:28:14;3.30;99.90
13052;DHT22;6592;47.484;9.726;2024-03-07T06:30:43;3.30;99.90
13052;DHT22;6592;47.484;9.726;2024-03-07T06:33:12;3.40;99.90
13052;DHT22;6592;47.484;9.726;2024-03-07T06:35:42;3.50;99.90
13052;DHT22;6592;47.484;9.726;2024-03-07T06:38:11;3.60;99.90
13052;DHT22;6592;47.484;9.726;2024-03-07T06:40:40;3.70;99.90
13052;DHT22;6592;47.484;9.726;2024-03-07T06:43:10;3.90;99.90
13052;DHT22;6592;47.484;9.726;2024-03-07T06:45:39;4.00;99.90
13052;DHT22;6592;47.484;9.726;2024-03-07T06:48:09;4.10;99.90
13052;DHT22;6592;47.484;9.726;2024-03-07T06:50:37;4.20;99.90
13052;DHT22;6592;47.484;9.726;2024-03-07T06:53:07;4.40;99.90
13052;DHT22;6592;47.484;9.726;2024-03-07T06:55:36;4.50;99.90
13052;DHT22;6592;47.484;9.726;2024-03-07T06:58:05;4.60;99.90
13052;DHT22;6592;47.484;9.726;2024-03-07T07:00:34;4.60;99.90
13052;DHT22;6592;47.484;9.726;2024-03-07T07:03:05;4.70;99.90
13052;DHT22;6592;47.484;9.726;2024-03-07T07:05:34;4.90;99.90
13052;DHT22;6592;47.484;9.726;2024-03-07T07:08:03;5.00;99.90
13052;DHT22;6592;47.484;9.726;2024-03-07T07:10:35;5.10;99.90
13052;DHT22;6592;47.484;9.726;2024-03-07T07:13:03;5.30;99.90
13052;DHT22;6592;47.484;9.726;2024-03-07T07:15:33;5.40;99.90
13052;DHT22;6592;47.484;9.726;2024-03-07T07:18:04;5.40;99.90
13052;DHT22;6592;47.484;9.726;2024-03-07T07:20:34;5.10;99.90
13052;DHT22;6592;47.484;9.726;2024-03-07T07:23:03;5.00;99.90
13052;DHT22;6592;47.484;9.726;2024-03-07T07:25:32;4.90;99.90
13052;DHT22;6592;47.484;9.726;2024-03-07T07:28:03;4.90;99.90
13052;DHT22;6592;47.484;9.726;2024-03-07T07:30:32;4.90;99.90
13052;DHT22;6592;47.484;9.726;2024-03-07T07:33:00;5.10;99.90
13052;DHT22;6592;47.484;9.726;2024-03-07T07:35:29;5.20;99.90
13052;DHT22;6592;47.484;9.726;2024-03-07T07:37:58;5.20;99.90
13052;DHT22;6592;47.484;9.726;2024-03-07T07:40:26;5.30;99.90
13052;DHT22;6592;47.484;9.726;2024-03-07T07:42:55;5.40;99.90
13052;DHT22;6592;47.484;9.726;2024-03-07T07:45:25;5.50;99.90
13052;DHT22;6592;47.484;9.726;2024-03-07T07:47:53;5.60;99.90
13052;DHT22;6592;47.484;9.726;2024-03-07T07:50:23;5.70;99.90
13052;DHT22;6592;47.484;9.726;2024-03-07T07:52:53;5.80;99.90
13052;DHT22;6592;47.484;9.726;2024-03-07T07:55:23;5.80;99.90
13052;DHT22;6592;47.484;9.726;2024-03-07T07:57:53;5.80;99.90
13052;DHT22;6592;47.484;9.726;2024-03-07T08:00:23;5.90;99.90
13052;DHT22;6592;47.484;9.726;2024-03-07T08:02:54;6.00;99.90
13052;DHT22;6592;47.484;9.726;2024-03-07T08:05:24;6.10;99.90
13052;DHT22;6592;47.484;9.726;2024-03-07T08:07:53;6.10;99.90
13052;DHT22;6592;47.484;9.726;2024-03-07T08:10:24;6.10;99.90
13052;DHT22;6592;47.484;9.726;2024-03-07T08:12:52;6.10;99.90
13052;DHT22;6592;47.484;9.726;2024-03-07T08:15:20;6.30;99.90
13052;DHT22;6592;47.484;9.726;2024-03-07T08:17:49;6.50;99.90
13052;DHT22;6592;47.484;9.726;2024-03-07T08:20:21;6.40;99.90
13052;DHT22;6592;47.484;9.726;2024-03-07T08:22:50;6.40;99.90
13052;DHT22;6592;47.484;9.726;2024-03-07T08:25:21;6.60;99.90
13052;DHT22;6592;47.484;9.726;2024-03-07T08:27:52;6.80;99.90
13052;DHT22;6592;47.484;9.726;2024-03-07T08:30:21;6.90;99.90
13052;DHT22;6592;47.484;9.726;2024-03-07T08:32:50;7.10;99.90
13052;DHT22;6592;47.484;9.726;2024-03-07T08:35:21;7.20;99.90
13052;DHT22;6592;47.484;9.726;2024-03-07T08:37:51;7.20;99.90
13052;DHT22;6592;47.484;9.726;2024-03-07T08:40:22;7.40;99.90
13052;DHT22;6592;47.484;9.726;2024-03-07T08:42:55;7.50;99.90
13052;DHT22;6592;47.484;9.726;2024-03-07T08:45:25;7.60;99.90
13052;DHT22;6592;47.484;9.726;2024-03-07T08:47:55;7.90;99.90
13052;DHT22;6592;47.484;9.726;2024-03-07T08:50:27;7.80;99.90
13052;DHT22;6592;47.484;9.726;2024-03-07T08:52:57;8.10;99.90
13052;DHT22;6592;47.484;9.726;2024-03-07T08:55:25;8.60;99.90
13052;DHT22;6592;47.484;9.726;2024-03-07T08:57:54;9.40;99.90
13052;DHT22;6592;47.484;9.726;2024-03-07T09:00:22;11.10;99.90
13052;DHT22;6592;47.484;9.726;2024-03-07T09:02:54;12.60;99.90
13052;DHT22;6592;47.484;9.726;2024-03-07T09:05:28;13.80;99.90
13052;DHT22;6592;47.484;9.726;2024-03-07T09:07:57;15.30;99.90
13052;DHT22;6592;47.484;9.726;2024-03-07T09:10:26;17.20;99.90
13052;DHT22;6592;47.484;9.726;2024-03-07T09:12:57;19.10;99.90
13052;DHT22;6592;47.484;9.726;2024-03-07T09:15:26;20.80;99.90
13052;DHT22;6592;47.484;9.726;2024-03-07T09:17:55;22.10;99.90
13052;DHT22;6592;47.484;9.726;2024-03-07T09:20:25;23.50;99.90
13052;DHT22;6592;47.484;9.726;2024-03-07T09:22:55;24.40;97.90
13052;DHT22;6592;47.484;9.726;2024-03-07T09:25:24;25.00;93.80
13052;DHT22;6592;47.484;9.726;2024-03-07T09:27:53;25.80;92.40
13052;DHT22;6592;47.484;9.726;2024-03-07T09:30:22;26.20;86.80
13052;DHT22;6592;47.484;9.726;2024-03-07T09:32:54;25.70;84.30
13052;DHT22;6592;47.484;9.726;2024-03-07T09:35:23;25.30;86.00
13052;DHT22;6592;47.484;9.726;2024-03-07T09:37:52;25.10;83.20
13052;DHT22;6592;47.484;9.726;2024-03-07T09:40:22;24.20;83.00
13052;DHT22;6592;47.484;9.726;2024-03-07T09:42:54;23.20;86.90
13052;DHT22;6592;47.484;9.726;2024-03-07T09:45:29;22.20;87.70
13052;DHT22;6592;47.484;9.726;2024-03-07T09:47:59;21.10;90.50
13052;DHT22;6592;47.484;9.726;2024-03-07T09:50:29;20.10;91.30
13052;DHT22;6592;47.484;9.726;2024-03-07T09:52:59;19.30;93.60
13052;DHT22;6592;47.484;9.726;2024-03-07T09:55:29;18.30;94.90
13052;DHT22;6592;47.484;9.726;2024-03-07T09:57:59;17.60;96.40
13052;DHT22;6592;47.484;9.726;2024-03-07T10:00:28;16.70;97.50
13052;DHT22;6592;47.484;9.726;2024-03-07T10:02:59;16.20;99.00
13052;DHT22;6592;47.484;9.726;2024-03-07T10:05:30;15.80;99.90
13052;DHT22;6592;47.484;9.726;2024-03-07T10:07:59;15.70;99.90
13052;DHT22;6592;47.484;9.726;2024-03-07T10:10:30;15.30;99.90
13052;DHT22;6592;47.484;9.726;2024-03-07T10:12:59;14.70;99.90
13052;DHT22;6592;47.484;9.726;2024-03-07T10:15:28;14.40;99.90
13052;DHT22;6592;47.484;9.726;2024-03-07T10:17:57;14.30;99.90
13052;DHT22;6592;47.484;9.726;2024-03-07T10:20:26;14.10;99.90
13052;DHT22;6592;47.484;9.726;2024-03-07T10:22:54;13.90;99.90
13052;DHT22;6592;47.484;9.726;2024-03-07T10:25:23;13.80;99.90
13052;DHT22;6592;47.484;9.726;2024-03-07T10:27:57;13.60;99.90
13052;DHT22;6592;47.484;9.726;2024-03-07T10:30:27;13.20;99.90
13052;DHT22;6592;47.484;9.726;2024-03-07T10:32:57;13.10;99.90
13052;DHT22;6592;47.484;9.726;2024-03-07T10:35:28;12.90;99.90
13052;DHT22;6592;47.484;9.726;2024-03-07T10:37:58;13.00;99.90
13052;DHT22;6592;47.484;9.726;2024-03-07T10:40:28;13.10;99.90
13052;DHT22;6592;47.484;9.726;2024-03-07T10:42:59;13.10;99.90
13052;DHT22;6592;47.484;9.726;2024-03-07T10:45:30;13.00;99.90
13052;DHT22;6592;47.484;9.726;2024-03-07T10:48:03;13.00;99.90
13052;DHT22;6592;47.484;9.726;2024-03-07T10:50:43;12.90;99.90
13052;DHT22;6592;47.484;9.726;2024-03-07T10:53:20;12.70;99.90
13052;DHT22;6592;47.484;9.726;2024-03-07T10:56:09;12.60;99.90
13052;DHT22;6592;47.484;9.726;2024-03-07T10:58:51;12.60;99.90
13052;DHT22;6592;47.484;9.726;2024-03-07T11:01:23;12.50;99.90
13052;DHT22;6592;47.484;9.726;2024-03-07T11:03:53;12.50;99.90
13052;DHT22;6592;47.484;9.726;2024-03-07T11:06:25;12.50;99.90
13052;DHT22;6592;47.484;9.726;2024-03-07T11:08:53;12.50;99.90
13052;DHT22;6592;47.484;9.726;2024-03-07T11:11:24;12.60;99.90
13052;DHT22;6592;47.484;9.726;2024-03-07T11:13:56;12.50;99.90
13052;DHT22;6592;47.484;9.726;2024-03-07T11:16:26;12.50;99.90
13052;DHT22;6592;47.484;9.726;2024-03-07T11:19:19;12.40;99.90
13052;DHT22;6592;47.484;9.726;2024-03-07T11:21:49;12.40;99.90
13052;DHT22;6592;47.484;9.726;2024-03-07T11:24:26;12.40;99.90
13052;DHT22;6592;47.484;9.726;2024-03-07T11:26:58;12.40;99.90
13052;DHT22;6592;47.484;9.726;2024-03-07T11:29:48;12.40;99.90
13052;DHT22;6592;47.484;9.726;2024-03-07T11:32:21;12.50;99.90
13052;DHT22;6592;47.484;9.726;2024-03-07T11:34:53;12.50;99.90
13052;DHT22;6592;47.484;9.726;2024-03-07T11:37:38;12.60;99.90
13052;DHT22;6592;47.484;9.726;2024-03-07T11:40:11;12.70;99.90
13052;DHT22;6592;47.484;9.726;2024-03-07T11:42:49;12.80;99.90
13052;DHT22;6592;47.484;9.726;2024-03-07T11:45:20;12.60;99.90
13052;DHT22;6592;47.484;9.726;2024-03-07T11:47:54;12.80;99.90
13052;DHT22;6592;47.484;9.726;2024-03-07T11:50:27;12.90;99.90
13052;DHT22;6592;47.484;9.726;2024-03-07T11:52:56;13.20;99.90
13052;DHT22;6592;47.484;9.726;2024-03-07T11:55:24;13.50;99.90
13052;DHT22;6592;47.484;9.726;2024-03-07T11:57:55;13.70;99.90
13052;DHT22;6592;47.484;9.726;2024-03-07T12:00:25;13.40;99.90
13052;DHT22;6592;47.484;9.726;2024-03-07T12:03:01;13.40;99.90
13052;DHT22;6592;47.484;9.726;2024-03-07T12:05:32;13.20;99.90
13052;DHT22;6592;47.484;9.726;2024-03-07T12:08:01;13.20;99.90
13052;DHT22;6592;47.484;9.726;2024-03-07T12:10:32;13.30;99.90
13052;DHT22;6592;47.484;9.726;2024-03-07T12:13:00;13.40;99.90
13052;DHT22;6592;47.484;9.726;2024-03-07T12:15:30;13.30;99.90
13052;DHT22;6592;47.484;9.726;2024-03-07T12:18:00;13.30;99.90
13052;DHT22;6592;47.484;9.726;2024-03-07T12:20:30;13.30;99.90
13052;DHT22;6592;47.484;9.726;2024-03-07T12:23:01;13.30;99.90
13052;DHT22;6592;47.484;9.726;2024-03-07T12:25:30;13.30;99.90
13052;DHT22;6592;47.484;9.726;2024-03-07T12:28:00;13.00;99.90
13052;DHT22;6592;47.484;9.726;2024-03-07T12:30:34;12.80;99.90
13052;DHT22;6592;47.484;9.726;2024-03-07T12:33:05;12.50;99.90
13052;DHT22;6592;47.484;9.726;2024-03-07T12:35:35;12.20;99.90
13052;DHT22;6592;47.484;9.726;2024-03-07T12:38:04;12.00;99.90
13052;DHT22;6592;47.484;9.726;2024-03-07T12:40:32;11.80;99.90
13052;DHT22;6592;47.484;9.726;2024-03-07T12:43:13;11.70;99.90
13052;DHT22;6592;47.484;9.726;2024-03-07T12:45:45;11.60;99.90
13052;DHT22;6592;47.484;9.726;2024-03-07T12:48:13;11.80;99.90
13052;DHT22;6592;47.484;9.726;2024-03-07T12:50:45;11.80;99.90
13052;DHT22;6592;47.484;9.726;2024-03-07T12:53:17;11.80;99.90
13052;DHT22;6592;47.484;9.726;2024-03-07T12:55:45;11.80;99.90
13052;DHT22;6592;47.484;9.726;2024-03-07T12:58:14;11.80;99.90
13052;DHT22;6592;47.484;9.726;2024-03-07T13:00:45;11.70;99.90
13052;DHT22;6592;47.484;9.726;2024-03-07T13:03:13;11.50;99.90
13052;DHT22;6592;47.484;9.726;2024-03-07T13:05:42;11.40;99.90
13052;DHT22;6592;47.484;9.726;2024-03-07T13:08:10;11.30;99.90
13052;DHT22;6592;47.484;9.726;2024-03-07T13:10:39;11.20;99.90
13052;DHT22;6592;47.484;9.726;2024-03-07T13:13:08;11.00;99.90
13052;DHT22;6592;47.484;9.726;2024-03-07T13:15:39;10.90;99.90
13052;DHT22;6592;47.484;9.726;2024-03-07T13:18:10;10.90;99.90
13052;DHT22;6592;47.484;9.726;2024-03-07T13:20:40;10.80;99.90
13052;DHT22;6592;47.484;9.726;2024-03-07T13:23:10;10.70;99.90
13052;DHT22;6592;47.484;9.726;2024-03-07T13:25:39;10.80;99.90
13052;DHT22;6592;47.484;9.726;2024-03-07T13:28:10;10.80;99.90
13052;DHT22;6592;47.484;9.726;2024-03-07T13:30:41;10.80;99.90
13052;DHT22;6592;47.484;9.726;2024-03-07T13:33:11;10.80;99.90
13052;DHT22;6592;47.484;9.726;2024-03-07T13:35:41;11.00;99.90
13052;DHT22;6592;47.484;9.726;2024-03-07T13:38:09;11.00;99.90
13052;DHT22;6592;47.484;9.726;2024-03-07T13:40:37;10.90;99.90
13052;DHT22;6592;47.484;9.726;2024-03-07T13:43:06;11.00;99.90
13052;DHT22;6592;47.484;9.726;2024-03-07T13:45:35;11.00;99.90
13052;DHT22;6592;47.484;9.726;2024-03-07T13:48:06;11.00;99.90
13052;DHT22;6592;47.484;9.726;2024-03-07T13:50:37;11.10;99.90
13052;DHT22;6592;47.484;9.726;2024-03-07T13:53:24;11.20;99.90
13052;DHT22;6592;47.484;9.726;2024-03-07T13:56:28;11.20;99.90
13052;DHT22;6592;47.484;9.726;2024-03-07T14:02:10;11.20;99.90
13052;DHT22;6592;47.484;9.726;2024-03-07T14:08:31;10.90;99.90
13052;DHT22;6592;47.484;9.726;2024-03-07T14:11:28;11.00;99.90
13052;DHT22;6592;47.484;9.726;2024-03-07T14:14:21;10.80;99.90
13052;DHT22;6592;47.484;9.726;2024-03-07T14:17:22;10.80;99.90
13052;DHT22;6592;47.484;9.726;2024-03-07T14:20:45;10.70;99.90
13052;DHT22;6592;47.484;9.726;2024-03-07T14:23:31;10.70;99.90
13052;DHT22;6592;47.484;9.726;2024-03-07T14:29:11;10.70;99.90
13052;DHT22;6592;47.484;9.726;2024-03-07T14:31:42;10.70;99.90
13052;DHT22;6592;47.484;9.726;2024-03-07T14:34:24;10.60;99.90
13052;DHT22;6592;47.484;9.726;2024-03-07T14:37:02;10.60;99.90
13052;DHT22;6592;47.484;9.726;2024-03-07T14:39:34;10.50;99.90
13052;DHT22;6592;47.484;9.726;2024-03-07T14:42:07;10.30;99.90
13052;DHT22;6592;47.484;9.726;2024-03-07T14:44:42;10.20;99.90
13052;DHT22;6592;47.484;9.726;2024-03-07T14:47:13;10.20;99.90
13052;DHT22;6592;47.484;9.726;2024-03-07T14:49:42;10.20;99.90
13052;DHT22;6592;47.484;9.726;2024-03-07T14:52:11;10.20;99.90
13052;DHT22;6592;47.484;9.726;2024-03-07T14:54:42;10.10;99.90
13052;DHT22;6592;47.484;9.726;2024-03-07T14:57:11;10.10;99.90
13052;DHT22;6592;47.484;9.726;2024-03-07T14:59:40;10.00;99.90
13052;DHT22;6592;47.484;9.726;2024-03-07T15:02:10;10.10;99.90
13052;DHT22;6592;47.484;9.726;2024-03-07T15:04:41;10.00;99.90
13052;DHT22;6592;47.484;9.726;2024-03-07T15:07:09;10.00;99.90
13052;DHT22;6592;47.484;9.726;2024-03-07T15:09:37;9.90;99.90
13052;DHT22;6592;47.484;9.726;2024-03-07T15:12:07;9.90;99.90
13052;DHT22;6592;47.484;9.726;2024-03-07T15:14:36;9.90;99.90
13052;DHT22;6592;47.484;9.726;2024-03-07T15:17:07;9.90;99.90
13052;DHT22;6592;47.484;9.726;2024-03-07T15:19:35;9.80;99.90
13052;DHT22;6592;47.484;9.726;2024-03-07T15:22:04;9.80;99.90
13052;DHT22;6592;47.484;9.726;2024-03-07T15:24:32;9.70;99.90
13052;DHT22;6592;47.484;9.726;2024-03-07T15:27:04;9.70;99.90
13052;DHT22;6592;47.484;9.726;2024-03-07T15:29:34;9.60;99.90
13052;DHT22;6592;47.484;9.726;2024-03-07T15:32:04;9.70;99.90
13052;DHT22;6592;47.484;9.726;2024-03-07T15:34:36;9.70;99.90
13052;DHT22;6592;47.484;9.726;2024-03-07T15:37:04;9.70;99.90
13052;DHT22;6592;47.484;9.726;2024-03-07T15:39:34;9.70;99.90
13052;DHT22;6592;47.484;9.726;2024-03-07T15:42:06;9.70;99.90
13052;DHT22;6592;47.484;9.726;2024-03-07T15:44:39;9.60;99.90
13052;DHT22;6592;47.484;9.726;2024-03-07T15:47:10;9.60;99.90
13052;DHT22;6592;47.484;9.726;2024-03-07T15:49:39;9.50;99.90
13052;DHT22;6592;47.484;9.726;2024-03-07T15:52:08;9.40;99.90
13052;DHT22;6592;47.484;9.726;2024-03-07T15:54:40;9.20;99.90
13052;DHT22;6592;47.484;9.726;2024-03-07T15:57:08;9.10;99.90
13052;DHT22;6592;47.484;9.726;2024-03-07T15:59:43;9.00;99.90
13052;DHT22;6592;47.484;9.726;2024-03-07T16:02:12;9.10;99.90
13052;DHT22;6592;47.484;9.726;2024-03-07T16:04:41;9.10;99.90
13052;DHT22;6592;47.484;9.726;2024-03-07T16:07:10;9.10;99.90
13052;DHT22;6592;47.484;9.726;2024-03-07T16:09:38;9.20;99.90
13052;DHT22;6592;47.484;9.726;2024-03-07T16:12:07;9.10;99.90
13052;DHT22;6592;47.484;9.726;2024-03-07T16:14:37;9.00;99.90
13052;DHT22;6592;47.484;9.726;2024-03-07T16:17:07;9.00;99.90
13052;DHT22;6592;47.484;9.726;2024-03-07T16:19:35;8.90;99.90
13052;DHT22;6592;47.484;9.726;2024-03-07T16:22:04;8.90;99.90
13052;DHT22;6592;47.484;9.726;2024-03-07T16:24:33;8.80;99.90